createdAt,value
2023-10-12T00:00:22.608Z,101466.00
2023-10-12T00:02:49.991Z,101441.34
2023-10-12T00:05:20.164Z,101453.53
2023-10-12T00:07:47.828Z,101434.34
2023-10-12T00:10:17.674Z,101451.88
2023-10-12T00:12:49.520Z,101435.06
2023-10-12T00:15:30.899Z,101420.19
2023-10-12T00:18:10.243Z,101441.25
2023-10-12T00:20:40.854Z,101432.44
2023-10-12T00:23:13.350Z,101435.03
2023-10-12T00:25:49.886Z,101432.44
2023-10-12T00:28:20.980Z,101432.34
2023-10-12T00:30:51.669Z,101428.81
2023-10-12T00:33:21.972Z,101425.25
2023-10-12T00:36:01.338Z,101435.00
2023-10-12T00:38:32.188Z,101428.88
2023-10-12T00:41:15.919Z,101413.97
2023-10-12T00:44:08.461Z,101424.72
2023-10-12T00:46:36.595Z,101426.56
2023-10-12T00:49:22.308Z,101417.69
2023-10-12T00:52:29.497Z,101417.06
2023-10-12T00:55:05.632Z,101420.50
2023-10-12T00:57:33.258Z,101408.31
2023-10-12T01:00:04.107Z,101410.97
2023-10-12T01:02:41.386Z,101427.69
2023-10-12T01:05:08.699Z,101423.25
2023-10-12T01:07:36.004Z,101417.13
2023-10-12T01:10:12.196Z,101407.50
2023-10-12T01:12:39.577Z,101415.31
2023-10-12T01:15:13.068Z,101397.00
2023-10-12T01:17:42.347Z,101419.00
2023-10-12T01:20:18.333Z,101414.56
2023-10-12T01:22:48.506Z,101415.44
2023-10-12T01:25:23.047Z,101408.28
2023-10-12T01:27:51.210Z,101397.00
2023-10-12T01:30:23.907Z,101401.28
2023-10-12T01:33:01.206Z,101381.84
2023-10-12T01:35:34.291Z,101385.25
2023-10-12T01:38:02.655Z,101388.72
2023-10-12T01:40:49.510Z,101393.75
2023-10-12T01:43:18.755Z,101394.53
2023-10-12T01:45:46.604Z,101396.25
2023-10-12T01:48:34.472Z,101376.81
2023-10-12T01:51:16.339Z,101394.28
2023-10-12T01:53:43.737Z,101388.03
2023-10-12T01:56:12.083Z,101393.25
2023-10-12T01:58:45.638Z,101380.75
2023-10-12T02:01:20.641Z,101386.84
2023-10-12T02:03:49.635Z,101392.06
2023-10-12T02:06:18.463Z,101400.78
2023-10-12T02:08:46.283Z,101382.13
2023-10-12T02:11:17.900Z,101388.31
2023-10-12T02:13:49.327Z,101389.09
2023-10-12T02:16:27.479Z,101356.66
2023-10-12T02:18:57.605Z,101396.03
2023-10-12T02:21:27.227Z,101389.75
2023-10-12T02:23:55.173Z,101383.50
2023-10-12T02:26:37.577Z,101391.47
2023-10-12T02:29:07.146Z,101351.91
2023-10-12T02:31:35.833Z,101372.97
2023-10-12T02:34:04.554Z,101384.28
2023-10-12T02:36:33.353Z,101399.19
2023-10-12T02:39:11.786Z,101399.97
2023-10-12T02:41:39.176Z,101371.66
2023-10-12T02:44:16.568Z,101385.53
2023-10-12T02:47:00.959Z,101386.44
2023-10-12T02:49:35.835Z,101391.69
2023-10-12T02:52:07.970Z,101381.28
2023-10-12T02:54:52.034Z,101398.00
2023-10-12T02:57:26.427Z,101390.19
2023-10-12T02:59:58.923Z,101397.19
2023-10-12T03:02:36.775Z,101402.50
2023-10-12T03:05:08.219Z,101382.38
2023-10-12T03:07:41.303Z,101393.75
2023-10-12T03:10:25.856Z,101399.91
2023-10-12T03:12:57.034Z,101393.06
2023-10-12T03:15:43.034Z,101396.59
2023-10-12T03:18:13.803Z,101415.03
2023-10-12T03:20:53.860Z,101407.94
2023-10-12T03:23:21.310Z,101415.06
2023-10-12T03:25:53.554Z,101408.00
2023-10-12T03:28:37.726Z,101420.38
2023-10-12T03:31:20.556Z,101423.03
2023-10-12T03:33:54.070Z,101428.34
2023-10-12T03:36:32.896Z,101422.13
2023-10-12T03:39:13.021Z,101421.34
2023-10-12T03:42:02.132Z,101417.97
2023-10-12T03:44:51.057Z,101430.25
2023-10-12T03:47:21.136Z,101433.00
2023-10-12T03:49:53.655Z,101427.75
2023-10-12T03:52:36.233Z,101428.72
2023-10-12T03:55:04.685Z,101431.38
2023-10-12T03:58:00.852Z,101434.09
2023-10-12T04:00:36.978Z,101438.47
2023-10-12T04:03:14.204Z,101422.84
2023-10-12T04:05:56.874Z,101430.81
2023-10-12T04:08:30.118Z,101437.72
2023-10-12T04:11:21.283Z,101438.69
2023-10-12T04:13:48.532Z,101444.03
2023-10-12T04:16:15.839Z,101438.75
2023-10-12T04:18:48.555Z,101430.09
2023-10-12T04:21:28.567Z,101440.56
2023-10-12T04:24:14.398Z,101438.81
2023-10-12T04:26:45.899Z,101446.00
2023-10-12T04:29:23.336Z,101435.59
2023-10-12T04:31:57.869Z,101451.41
2023-10-12T04:34:28.129Z,101447.84
2023-10-12T04:37:15.691Z,101440.00
2023-10-12T04:39:50.983Z,101453.19
2023-10-12T04:42:26.505Z,101464.59
2023-10-12T04:45:04.551Z,101462.75
2023-10-12T04:47:32.113Z,101459.13
2023-10-12T04:49:59.426Z,101466.19
2023-10-12T04:52:34.660Z,101459.00
2023-10-12T04:55:21.193Z,101467.72
2023-10-12T04:58:08.577Z,101466.72
2023-10-12T05:00:50.274Z,101464.81
2023-10-12T05:03:25.469Z,101475.19
2023-10-12T05:06:05.378Z,101480.31
2023-10-12T05:08:34.745Z,101482.97
2023-10-12T05:11:02.312Z,101470.53
2023-10-12T05:13:29.616Z,101470.56
2023-10-12T05:15:57.168Z,101472.03
2023-10-12T05:18:25.725Z,101466.03
2023-10-12T05:20:54.051Z,101482.59
2023-10-12T05:23:21.786Z,101484.00
2023-10-12T05:25:49.786Z,101479.94
2023-10-12T05:28:32.501Z,101487.03
2023-10-12T05:31:09.926Z,101484.00
2023-10-12T05:33:44.721Z,101489.56
2023-10-12T05:36:13.694Z,101493.31
2023-10-12T05:38:50.099Z,101489.75
2023-10-12T05:41:23.542Z,101494.63
2023-10-12T05:43:50.757Z,101498.50
2023-10-12T05:46:18.104Z,101507.25
2023-10-12T05:48:48.589Z,101498.38
2023-10-12T05:51:20.803Z,101512.38
2023-10-12T05:53:50.461Z,101492.94
2023-10-12T05:56:19.210Z,101510.66
2023-10-12T05:58:46.407Z,101509.56
2023-10-12T06:04:07.965Z,101514.97
2023-10-12T06:06:43.489Z,101515.81
2023-10-12T06:09:15.221Z,101529.75
2023-10-12T06:11:48.520Z,101521.25
2023-10-12T06:14:16.618Z,101526.63
2023-10-12T06:16:44.017Z,101535.00
2023-10-12T06:19:28.292Z,101521.91
2023-10-12T06:22:21.063Z,101524.75
2023-10-12T06:24:54.570Z,101535.03
2023-10-12T06:27:22.222Z,101532.69
2023-10-12T06:29:51.500Z,101536.56
2023-10-12T06:32:20.827Z,101535.63
2023-10-12T06:35:24.386Z,101530.31
2023-10-12T06:37:57.973Z,101541.69
2023-10-12T06:40:26.524Z,101537.22
2023-10-12T06:43:14.434Z,101541.13
2023-10-12T06:45:58.594Z,101540.28
2023-10-12T06:48:30.627Z,101533.81
2023-10-12T06:51:07.916Z,101534.13
2023-10-12T06:53:37.582Z,101543.31
2023-10-12T06:56:22.033Z,101546.06
2023-10-12T06:59:23.005Z,101542.94
2023-10-12T07:01:50.561Z,101543.34
2023-10-12T07:04:42.622Z,101558.38
2023-10-12T07:07:13.690Z,101552.97
2023-10-12T07:09:42.045Z,101562.06
2023-10-12T07:12:13.456Z,101544.44
2023-10-12T07:14:48.438Z,101558.38
2023-10-12T07:17:16.587Z,101556.94
2023-10-12T07:19:55.671Z,101558.53
2023-10-12T07:22:23.129Z,101550.28
2023-10-12T07:24:58.746Z,101559.66
2023-10-12T07:27:26.424Z,101557.72
2023-10-12T07:30:16.172Z,101559.56
2023-10-12T07:32:56.498Z,101561.81
2023-10-12T07:35:36.174Z,101558.69
2023-10-12T07:38:14.746Z,101561.69
2023-10-12T07:40:58.174Z,101554.16
2023-10-12T07:43:26.113Z,101555.22
2023-10-12T07:45:53.750Z,101544.97
2023-10-12T07:48:42.144Z,101550.88
2023-10-12T07:51:30.153Z,101550.16
2023-10-12T07:54:01.996Z,101548.22
2023-10-12T07:56:35.964Z,101560.06
2023-10-12T07:59:03.630Z,101532.25
2023-10-12T08:01:30.889Z,101543.50
2023-10-12T08:04:01.645Z,101543.13
2023-10-12T08:06:38.174Z,101544.34
2023-10-12T08:09:40.599Z,101537.41
2023-10-12T08:12:25.971Z,101538.38
2023-10-12T08:15:10.808Z,101544.47
2023-10-12T08:17:40.756Z,101534.16
2023-10-12T08:20:34.505Z,101546.72
2023-10-12T08:23:04.041Z,101536.66
2023-10-12T08:25:39.591Z,101547.91
2023-10-12T08:28:20.404Z,101535.81
2023-10-12T08:30:58.981Z,101539.03
2023-10-12T08:33:46.803Z,101543.59
2023-10-12T08:36:16.752Z,101537.59
2023-10-12T08:39:09.922Z,101542.00
2023-10-12T08:41:55.698Z,101539.50
2023-10-12T08:44:23.311Z,101529.59
2023-10-12T08:46:56.776Z,101531.47
2023-10-12T08:49:54.426Z,101518.81
2023-10-12T08:52:32.180Z,101538.31
2023-10-12T08:55:13.823Z,101524.19
2023-10-12T08:58:13.578Z,101532.03
2023-10-12T09:01:07.148Z,101505.56
2023-10-12T09:03:55.081Z,101526.66
2023-10-12T09:06:38.326Z,101535.97
2023-10-12T09:09:07.083Z,101530.53
2023-10-12T09:11:37.412Z,101529.06
2023-10-12T09:14:18.017Z,101528.16
2023-10-12T09:16:45.782Z,101513.44
2023-10-12T09:19:31.507Z,101510.50
2023-10-12T09:22:00.223Z,101506.69
2023-10-12T09:24:30.125Z,101518.13
2023-10-12T09:27:01.057Z,101499.41
2023-10-12T09:29:43.815Z,101506.81
2023-10-12T09:32:17.153Z,101498.53
2023-10-12T09:35:04.789Z,101501.00
2023-10-12T09:37:45.847Z,101498.91
2023-10-12T09:40:36.740Z,101497.69
2023-10-12T09:43:14.372Z,101488.50
2023-10-12T09:45:49.255Z,101488.97
2023-10-12T09:48:28.873Z,101494.69
2023-10-12T09:50:57.442Z,101483.50
2023-10-12T09:53:42.915Z,101458.22
2023-10-12T09:56:17.403Z,101482.25
2023-10-12T09:58:55.331Z,101472.53
2023-10-12T10:01:40.840Z,101469.09
2023-10-12T10:04:27.345Z,101465.19
2023-10-12T10:07:10.257Z,101470.47
2023-10-12T10:09:40.118Z,101463.81
2023-10-12T10:12:09.975Z,101451.97
2023-10-12T10:14:41.148Z,101455.53
2023-10-12T10:17:17.417Z,101454.38
2023-10-12T10:19:53.392Z,101438.84
2023-10-12T10:22:23.253Z,101440.19
2023-10-12T10:24:57.339Z,101417.44
2023-10-12T10:27:36.821Z,101428.06
2023-10-12T10:30:38.121Z,101436.50
2023-10-12T10:33:15.601Z,101426.13
2023-10-12T10:36:06.439Z,101432.13
2023-10-12T10:38:33.919Z,101427.84
2023-10-12T10:41:09.658Z,101421.41
2023-10-12T10:43:41.801Z,101417.66
2023-10-12T10:46:13.232Z,101409.16
2023-10-12T10:51:29.185Z,101414.69
2023-10-12T10:54:00.242Z,101403.88
2023-10-12T10:56:43.121Z,101399.13
2023-10-12T10:59:14.094Z,101402.59
2023-10-12T11:01:48.231Z,101400.06
2023-10-12T11:04:34.342Z,101397.38
2023-10-12T11:07:13.562Z,101386.81
2023-10-12T11:09:55.012Z,101392.97
2023-10-12T11:12:24.591Z,101385.56
2023-10-12T11:15:02.501Z,101390.09
2023-10-12T11:17:37.545Z,101385.34
2023-10-12T11:20:27.922Z,101386.63
2023-10-12T11:22:56.012Z,101381.22
2023-10-12T11:25:23.414Z,101373.03
2023-10-12T11:27:53.080Z,101373.22
2023-10-12T11:30:43.803Z,101366.97
2023-10-12T11:33:11.378Z,101369.38
2023-10-12T11:35:42.136Z,101379.69
2023-10-12T11:38:19.941Z,101366.41
2023-10-12T11:40:56.864Z,101361.47
2023-10-12T11:43:45.900Z,101355.91
2023-10-12T11:46:27.725Z,101359.16
2023-10-12T11:49:03.265Z,101367.53
2023-10-12T11:51:31.171Z,101362.06
2023-10-12T11:53:59.359Z,101351.56
2023-10-12T11:56:26.541Z,101350.94
2023-10-12T11:58:58.799Z,101346.59
2023-10-12T12:01:31.100Z,101343.31
2023-10-12T12:03:58.732Z,101347.09
2023-10-12T12:06:29.878Z,101338.25
2023-10-12T12:09:01.208Z,101330.63
2023-10-12T12:11:33.105Z,101340.25
2023-10-12T12:14:01.954Z,101336.31
2023-10-12T12:16:29.169Z,101324.75
2023-10-12T12:18:56.795Z,101315.78
2023-10-12T12:21:34.784Z,101315.09
2023-10-12T12:24:26.464Z,101315.59
2023-10-12T12:26:54.992Z,101310.13
2023-10-12T12:29:35.413Z,101324.75
2023-10-12T12:32:07.604Z,101322.81
2023-10-12T12:34:43.541Z,101307.88
2023-10-12T12:37:23.329Z,101306.72
2023-10-12T12:40:16.465Z,101307.78
2023-10-12T12:42:45.939Z,101308.22
2023-10-12T12:45:13.149Z,101296.09
2023-10-12T12:47:40.671Z,101291.69
2023-10-12T12:50:10.174Z,101312.75
2023-10-12T12:52:42.314Z,101302.66
2023-10-12T12:55:12.447Z,101306.44
2023-10-12T12:57:40.714Z,101297.75
2023-10-12T13:00:09.972Z,101293.41
2023-10-12T13:02:40.297Z,101295.25
2023-10-12T13:05:09.538Z,101284.22
2023-10-12T13:07:36.733Z,101283.53
2023-10-12T13:10:04.297Z,101291.59
2023-10-12T13:12:33.077Z,101298.44
2023-10-12T13:15:03.842Z,101293.50
2023-10-12T13:17:34.360Z,101288.09
2023-10-12T13:20:01.684Z,101291.75
2023-10-12T13:22:29.193Z,101286.38
2023-10-12T13:24:58.551Z,101268.88
2023-10-12T13:27:29.161Z,101277.44
2023-10-12T13:30:11.205Z,101273.88
2023-10-12T13:32:38.583Z,101285.09
2023-10-12T13:35:24.903Z,101286.25
2023-10-12T13:37:54.787Z,101286.50
2023-10-12T13:40:21.924Z,101277.06
2023-10-12T13:42:49.265Z,101280.19
2023-10-12T13:45:20.044Z,101266.31
2023-10-12T13:47:48.603Z,101265.59
2023-10-12T13:50:16.455Z,101278.63
2023-10-12T13:52:43.758Z,101285.22
2023-10-12T13:55:15.484Z,101284.34
2023-10-12T13:57:57.156Z,101281.84
2023-10-12T14:00:28.473Z,101287.41
2023-10-12T14:02:58.212Z,101284.19
2023-10-12T14:05:29.189Z,101277.75
2023-10-12T14:08:03.144Z,101283.13
2023-10-12T14:10:31.268Z,101275.53
2023-10-12T14:12:58.432Z,101273.00
2023-10-12T14:15:29.004Z,101276.72
2023-10-12T14:18:00.741Z,101278.72
2023-10-12T14:20:31.093Z,101281.59
2023-10-12T14:23:07.396Z,101257.28
2023-10-12T14:25:40.397Z,101284.03
2023-10-12T14:28:07.677Z,101270.97
2023-10-12T14:30:35.513Z,101268.91
2023-10-12T14:33:04.147Z,101274.59
2023-10-12T14:35:32.187Z,101270.69
2023-10-12T14:37:59.310Z,101276.56
2023-10-12T14:40:33.316Z,101282.19
2023-10-12T14:43:22.301Z,101274.56
2023-10-12T14:46:00.045Z,101277.50
2023-10-12T14:48:27.899Z,101277.84
2023-10-12T14:51:10.533Z,101270.53
2023-10-12T14:53:37.732Z,101281.00
2023-10-12T14:56:05.385Z,101272.09
2023-10-12T14:58:33.032Z,101281.97
2023-10-12T15:01:01.039Z,101272.41
2023-10-12T15:03:34.011Z,101267.38
2023-10-12T15:06:04.392Z,101265.66
2023-10-12T15:08:31.667Z,101273.59
2023-10-12T15:11:00.872Z,101282.78
2023-10-12T15:13:28.439Z,101272.22
2023-10-12T15:15:55.813Z,101287.53
2023-10-12T15:18:26.516Z,101280.75
2023-10-12T15:21:02.234Z,101286.34
2023-10-12T15:23:36.361Z,101279.69
2023-10-12T15:26:03.539Z,101287.81
2023-10-12T15:28:30.631Z,101282.69
2023-10-12T15:30:57.781Z,101291.84
2023-10-12T15:33:26.490Z,101288.84
2023-10-12T15:35:53.590Z,101292.56
2023-10-12T15:38:20.762Z,101293.56
2023-10-12T15:40:47.857Z,101293.19
2023-10-12T15:43:18.371Z,101292.44
2023-10-12T15:45:46.876Z,101303.97
2023-10-12T15:48:15.284Z,101308.63
2023-10-12T15:50:43.912Z,101308.84
2023-10-12T15:53:11.045Z,101312.63
2023-10-12T15:55:38.257Z,101305.03
2023-10-12T15:58:07.265Z,101313.06
2023-10-12T16:00:34.506Z,101322.22
2023-10-12T16:03:09.941Z,101299.59
2023-10-12T16:05:37.956Z,101306.97
2023-10-12T16:08:18.161Z,101314.88
2023-10-12T16:10:50.777Z,101308.91
2023-10-12T16:13:18.797Z,101315.53
2023-10-12T16:15:46.250Z,101323.72
2023-10-12T16:18:13.792Z,101326.84
2023-10-12T16:20:41.389Z,101325.41
2023-10-12T16:23:08.886Z,101332.03
2023-10-12T16:25:36.264Z,101330.63
2023-10-12T16:28:03.956Z,101314.22
2023-10-12T16:30:36.244Z,101325.00
2023-10-12T16:33:03.919Z,101337.19
2023-10-12T16:35:31.872Z,101322.88
2023-10-12T16:38:01.718Z,101339.00
2023-10-12T16:40:31.689Z,101328.47
2023-10-12T16:42:58.990Z,101334.97
2023-10-12T16:45:26.882Z,101339.41
2023-10-12T16:47:54.188Z,101338.84
2023-10-12T16:50:21.657Z,101350.34
2023-10-12T16:52:51.417Z,101347.16
2023-10-12T16:55:20.203Z,101357.94
2023-10-12T16:57:47.467Z,101346.66
2023-10-12T17:00:18.606Z,101349.63
2023-10-12T17:02:47.165Z,101352.69
2023-10-12T17:05:15.746Z,101357.41
2023-10-12T17:07:46.516Z,101340.97
2023-10-12T17:10:18.568Z,101360.38
2023-10-12T17:12:45.859Z,101360.59
2023-10-12T17:15:13.366Z,101355.34
2023-10-12T17:17:40.485Z,101358.03
2023-10-12T17:20:12.791Z,101361.88
2023-10-12T17:22:40.666Z,101364.59
2023-10-12T17:25:10.450Z,101348.19
2023-10-12T17:27:38.895Z,101354.31
2023-10-12T17:30:10.978Z,101355.16
2023-10-12T17:32:39.097Z,101364.84
2023-10-12T17:35:06.655Z,101352.03
2023-10-12T17:37:36.588Z,101359.97
2023-10-12T17:40:04.326Z,101369.03
2023-10-12T17:42:33.624Z,101350.00
2023-10-12T17:45:02.844Z,101361.50
2023-10-12T17:47:29.943Z,101363.50
2023-10-12T17:49:57.108Z,101359.50
2023-10-12T17:52:25.293Z,101365.50
2023-10-12T17:54:52.676Z,101357.03
2023-10-12T17:57:20.317Z,101357.88
2023-10-12T17:59:48.554Z,101365.97
2023-10-12T18:02:15.819Z,101351.22
2023-10-12T18:04:47.408Z,101352.28
2023-10-12T18:07:15.340Z,101361.16
2023-10-12T18:09:45.916Z,101357.06
2023-10-12T18:12:13.084Z,101359.13
2023-10-12T18:14:40.819Z,101373.34
2023-10-12T18:17:08.112Z,101377.94
2023-10-12T18:19:36.345Z,101380.78
2023-10-12T18:22:03.673Z,101376.38
2023-10-12T18:24:32.183Z,101369.53
2023-10-12T18:26:59.729Z,101381.91
2023-10-12T18:29:27.007Z,101369.69
2023-10-12T18:31:54.208Z,101370.63
2023-10-12T18:34:21.556Z,101366.25
2023-10-12T18:36:58.247Z,101372.50
2023-10-12T18:39:33.319Z,101384.03
2023-10-12T18:42:00.514Z,101389.53
2023-10-12T18:44:29.314Z,101388.88
2023-10-12T18:46:56.969Z,101380.19
2023-10-12T18:49:24.341Z,101382.16
2023-10-12T18:51:51.554Z,101388.50
2023-10-12T18:54:20.119Z,101380.91
2023-10-12T18:56:47.448Z,101384.50
2023-10-12T18:59:16.360Z,101375.19
2023-10-12T19:01:44.305Z,101382.03
2023-10-12T19:04:12.015Z,101387.41
2023-10-12T19:06:39.146Z,101383.97
2023-10-12T19:09:06.602Z,101381.44
2023-10-12T19:11:33.693Z,101383.34
2023-10-12T19:14:00.761Z,101364.13
2023-10-12T19:16:28.034Z,101380.88
2023-10-12T19:18:55.656Z,101376.66
2023-10-12T19:21:23.842Z,101385.47
2023-10-12T19:23:51.087Z,101383.00
2023-10-12T19:26:18.280Z,101385.72
2023-10-12T19:28:45.835Z,101378.06
2023-10-12T19:31:15.156Z,101368.50
2023-10-12T19:33:43.376Z,101390.53
2023-10-12T19:36:11.886Z,101388.81
2023-10-12T19:38:40.700Z,101388.00
2023-10-12T19:41:09.392Z,101389.81
2023-10-12T19:43:41.400Z,101387.28
2023-10-12T19:46:12.753Z,101385.59
2023-10-12T19:48:40.956Z,101382.13
2023-10-12T19:51:15.142Z,101386.72
2023-10-12T19:53:44.424Z,101375.38
2023-10-12T19:56:16.297Z,101390.38
2023-10-12T19:58:50.531Z,101388.69
2023-10-12T20:01:22.351Z,101391.41
2023-10-12T20:03:51.091Z,101391.53
2023-10-12T20:06:19.650Z,101388.97
2023-10-12T20:08:50.658Z,101387.28
2023-10-12T20:11:18.888Z,101385.66
2023-10-12T20:13:49.733Z,101376.22
2023-10-12T20:16:25.250Z,101370.09
2023-10-12T20:18:52.832Z,101376.34
2023-10-12T20:21:21.576Z,101373.88
2023-10-12T20:23:49.827Z,101381.75
2023-10-12T20:26:19.153Z,101384.50
2023-10-12T20:28:46.616Z,101380.22
2023-10-12T20:31:15.508Z,101375.94
2023-10-12T20:33:44.331Z,101386.63
2023-10-12T20:36:12.632Z,101387.63
2023-10-12T20:38:40.700Z,101363.94
2023-10-12T20:41:08.133Z,101367.59
2023-10-12T20:43:39.531Z,101368.50
2023-10-12T20:46:09.896Z,101379.91
2023-10-12T20:48:37.814Z,101378.28
2023-10-12T20:51:07.985Z,101379.16
2023-10-12T20:53:35.827Z,101372.19
2023-10-12T20:56:28.209Z,101377.47
2023-10-12T20:59:12.395Z,101380.19
2023-10-12T21:01:58.785Z,101376.75
2023-10-12T21:04:26.893Z,101364.59
2023-10-12T21:06:57.112Z,101369.81
2023-10-12T21:09:24.689Z,101373.41
2023-10-12T21:11:58.993Z,101372.59
2023-10-12T21:14:27.989Z,101359.56
2023-10-12T21:16:56.942Z,101370.97
2023-10-12T21:19:27.279Z,101366.56
2023-10-12T21:22:09.131Z,101367.56
2023-10-12T21:24:39.467Z,101357.19
2023-10-12T21:27:09.102Z,101362.44
2023-10-12T21:29:36.381Z,101358.97
2023-10-12T21:32:10.995Z,101363.41
2023-10-12T21:34:39.009Z,101362.59
2023-10-12T21:37:06.493Z,101363.56
2023-10-12T21:39:43.260Z,101375.06
2023-10-12T21:42:11.300Z,101374.31
2023-10-12T21:44:42.456Z,101366.44
2023-10-12T21:47:15.502Z,101362.91
2023-10-12T21:49:42.650Z,101348.00
2023-10-12T21:52:09.856Z,101361.13
2023-10-12T21:54:37.713Z,101362.97
2023-10-12T21:57:11.308Z,101353.41
2023-10-12T21:59:39.429Z,101361.31
2023-10-12T22:04:38.486Z,101355.19
2023-10-12T22:07:08.438Z,101352.56
2023-10-12T22:09:45.687Z,101355.34
2023-10-12T22:12:20.568Z,101355.44
2023-10-12T22:14:50.648Z,101360.75
2023-10-12T22:17:27.555Z,101361.63
2023-10-12T22:19:55.903Z,101359.06
2023-10-12T22:22:26.115Z,101344.16
2023-10-12T22:24:55.451Z,101351.09
2023-10-12T22:27:23.556Z,101351.16
2023-10-12T22:29:50.711Z,101339.84
2023-10-12T22:32:17.774Z,101354.78
2023-10-12T22:34:45.005Z,101338.97
2023-10-12T22:37:12.719Z,101341.63
2023-10-12T22:39:40.459Z,101350.34
2023-10-12T22:42:07.608Z,101339.81
2023-10-12T22:44:37.250Z,101355.59
2023-10-12T22:47:04.906Z,101354.72
2023-10-12T22:49:35.146Z,101355.59
2023-10-12T22:52:02.536Z,101360.97
2023-10-12T22:54:35.084Z,101363.63
2023-10-12T22:57:06.618Z,101365.34
2023-10-12T22:59:33.891Z,101361.00
2023-10-12T23:02:01.550Z,101360.13
2023-10-12T23:04:29.110Z,101367.25
2023-10-12T23:06:56.627Z,101364.63
2023-10-12T23:09:25.038Z,101371.69
2023-10-12T23:11:56.679Z,101374.34
2023-10-12T23:14:29.031Z,101364.69
2023-10-12T23:16:59.877Z,101364.69
2023-10-12T23:19:45.371Z,101369.16
2023-10-12T23:22:32.979Z,101370.13
2023-10-12T23:25:02.837Z,101351.91
2023-10-12T23:27:33.465Z,101368.56
2023-10-12T23:30:02.076Z,101366.84
2023-10-12T23:32:31.785Z,101362.44
2023-10-12T23:35:00.366Z,101359.84
2023-10-12T23:37:27.865Z,101365.19
2023-10-12T23:39:57.417Z,101361.66
2023-10-12T23:42:24.743Z,101357.28
2023-10-12T23:44:51.874Z,101347.75
2023-10-12T23:47:33.954Z,101362.63
2023-10-12T23:50:10.471Z,101350.25
2023-10-12T23:53:08.848Z,101361.78
2023-10-12T23:55:42.566Z,101359.22
2023-10-12T23:58:13.895Z,101347.00
